Forside
METAR-TAF:

METAR-TAF

Lufthavne :

London-Southend, England

Breddekreds: 51-34N, længdekreds: 000-42E, højde: 15 m

Aktuelle vejr

Denne rapport blev lavet for 37 minutter siden, kl. 18:50 UTC
Vind 7 kt fra vestsydvest
Temperatur 6°C
Fugtighed 93%
Tryk 1012 hPa
Sigt: 4000 m
Brudte skyer i en højde af 1200 ft
Brudte skyer i en højde af 2200 ft
let regn, finregn

METAR: EGMC 021850Z 25007KT 4000 -RADZ BKN012 BKN022 06/05 Q1012

Tid: 19:27 (19:27 UTC)

Vejrudsigter

Denne rapport blev lavet for 2 timer og 30 minutter siden, kl. 16:57 UTC
Foreløbig gælder fra 02 på 18 UTC til 03 på 03 UTC
Vind 6 kt fra vestsydvest
Sigt 10 km eller mere
Spredte skyer i en højde af 2500 ft
Midlertidig
fra 02 på 18 UTC til 02 på 22 UTC
Sigt: 6000 m
Brudte skyer i en højde af 1200 ft
let regn, finregn
Sandsynlighed 30% :
Midlertidig
fra 02 på 18 UTC til 02 på 20 UTC
Sigt: 3000 m
Brudte skyer i en højde af 700 ft
finregn, dis

TAF: EGMC 021657Z 0218/0303 24006KT 9999 SCT025 TEMPO 0218/0222 6000 -RADZ BKN012 PROB30 TEMPO 0218/0220 3000 DZ BR BKN007

Vejrobservationer og prognoser fra mere end 4000 lufthavne (METAR og TAF).

De gule og røde prikker repræsenterer de meteorologiske stationer.

Flyt musen over at se navnet på stationen.

Så klik over at se vejr observationer og prognoser.

At skifte det kort: Klik på de grønne knapper med et sort kors for at zoome ind; på den grønne knap med en bindestreg for at zoome ud; eller på de grønne pile for tilstødende kort.


METAR-TAF: